Kanaskat, Washington
Current Conditions -  °F | °C
As of 10:25 PM on Tuesday 27 Jan 2015 (Local Time) from KRNT Reporting Station
Overcast Overcast  
Wind Chill: 46°   Ceiling: 1000
Heat Index: 48°   Visibility: 10mi
Dew Point: 47°   Wind: 5mph
Humidity: 96%   Direction: 320°NW
Pressure: 30.26"   Gusts: NA
Location:  47.3777°N, 121.913°W
Report Text: KRNT 280625Z AUTO 32004KT 10SM OVC010 09/08 A3026 RMK AO2 T00890083
Loading
Personal Weather Stations






























Interactive Weather Map New forecast layout! Learn more

10-Day Weather Forecast

Advertisements
Track Severe Weather on mobile